createdAt,value
2019-03-09T00:00:34.776Z,1022.14
2019-03-09T00:04:04.828Z,1022.27
2019-03-09T00:07:34.910Z,1022.19
2019-03-09T00:11:05.002Z,1022.35
2019-03-09T00:14:34.984Z,1022.53
2019-03-09T00:18:05.086Z,1022.35
2019-03-09T00:21:36.809Z,1022.53
2019-03-09T00:25:14.361Z,1022.35
2019-03-09T00:28:50.833Z,1022.26
2019-03-09T00:32:23.435Z,1021.82
2019-03-09T00:35:53.507Z,1021.97
2019-03-09T00:39:23.588Z,1021.64
2019-03-09T00:42:53.644Z,1021.74
2019-03-09T00:46:23.734Z,1021.81
2019-03-09T00:49:53.845Z,1021.68
2019-03-09T00:53:23.887Z,1021.28
2019-03-09T00:56:53.929Z,1021.01
2019-03-09T01:00:24.001Z,1021
2019-03-09T01:03:54.174Z,1020.79
2019-03-09T01:07:24.245Z,1020.57
2019-03-09T01:10:54.277Z,1020.35
2019-03-09T01:14:24.478Z,1020.13
2019-03-09T01:17:54.531Z,1019.97
2019-03-09T01:21:24.733Z,1020.02
2019-03-09T01:24:55.875Z,1019.41
2019-03-09T01:28:25.927Z,1019.31
2019-03-09T01:31:55.959Z,1019.2
2019-03-09T01:35:26.187Z,1019.29
2019-03-09T01:38:56.183Z,1019.36
2019-03-09T01:42:26.320Z,1019.48
2019-03-09T01:45:56.361Z,1019.85
2019-03-09T01:49:26.399Z,1020.01
2019-03-09T01:52:56.520Z,1019.93
2019-03-09T01:56:26.642Z,1019.89
2019-03-09T01:59:56.654Z,1020.06
2019-03-09T02:00:17.408Z,1020.03
2019-03-09T02:03:47.437Z,1019.85
2019-03-09T02:07:17.429Z,1019.99
2019-03-09T02:10:47.531Z,1020.01
2019-03-09T02:14:17.614Z,1019.87
2019-03-09T02:17:47.742Z,1020.11
2019-03-09T02:21:17.797Z,1020.15
2019-03-09T02:24:47.939Z,1020
2019-03-09T02:28:18.921Z,1020.19
2019-03-09T02:31:48.948Z,1019.95
2019-03-09T02:35:19.005Z,1019.56
2019-03-09T02:39:00.808Z,1019.47
2019-03-09T02:42:30.913Z,1019.51
2019-03-09T02:46:00.974Z,1019.71
2019-03-09T02:49:31.056Z,1019.75
2019-03-09T02:53:01.016Z,1019.75
2019-03-09T02:56:31.078Z,1019.75
2019-03-09T03:00:01.778Z,1019.7
2019-03-09T03:03:32.112Z,1019.5
2019-03-09T03:07:02.382Z,1019.3
2019-03-09T03:10:32.515Z,1019.27
2019-03-09T03:14:02.658Z,1019.32
2019-03-09T03:17:32.660Z,1019.46
2019-03-09T03:21:02.858Z,1019.32
2019-03-09T03:24:33.064Z,1018.93
2019-03-09T03:28:03.106Z,1018.74
2019-03-09T03:31:33.239Z,1018.7
2019-03-09T03:35:04.065Z,1018.77
2019-03-09T03:38:34.082Z,1018.52
2019-03-09T03:42:04.220Z,1018.02
2019-03-09T03:45:34.316Z,1017.72
2019-03-09T03:49:04.411Z,1017.76
2019-03-09T03:52:34.560Z,1017.88
2019-03-09T03:56:04.689Z,1017.95
2019-03-09T03:59:34.796Z,1018.16
2019-03-09T04:00:17.043Z,1018.16
2019-03-09T04:03:47.208Z,1018.28
2019-03-09T04:07:17.255Z,1018.31
2019-03-09T04:10:47.760Z,1018.12
2019-03-09T04:14:17.812Z,1018.25
2019-03-09T04:17:47.874Z,1018.16
2019-03-09T04:21:18.071Z,1018.2
2019-03-09T04:24:48.339Z,1018.27
2019-03-09T04:28:18.372Z,1018.03
2019-03-09T04:31:49.403Z,1017.91
2019-03-09T04:35:19.397Z,1017.72
2019-03-09T04:38:49.406Z,1017.59
2019-03-09T04:42:19.437Z,1017.7
2019-03-09T04:45:49.529Z,1017.21
2019-03-09T04:49:19.621Z,1017.3
2019-03-09T04:52:49.783Z,1017.68
2019-03-09T04:56:19.827Z,1018.34
2019-03-09T04:59:49.888Z,1018.74
2019-03-09T05:03:20.039Z,1019
2019-03-09T05:06:50.121Z,1019.17
2019-03-09T05:10:26.956Z,1019.48
2019-03-09T05:14:00.546Z,1019.75
2019-03-09T05:17:30.638Z,1020.33
2019-03-09T05:21:00.739Z,1020.69
2019-03-09T05:24:30.759Z,1021
2019-03-09T05:28:00.840Z,1021.53
2019-03-09T05:31:30.846Z,1021.94
2019-03-09T05:35:01.877Z,1021.87
2019-03-09T05:38:32.059Z,1021.91
2019-03-09T05:42:02.121Z,1022
2019-03-09T05:45:32.094Z,1022.4
2019-03-09T05:49:02.196Z,1023
2019-03-09T05:52:33.342Z,1024.01
2019-03-09T05:56:03.440Z,1024.94
2019-03-09T05:59:33.483Z,1024.37
2019-03-09T06:00:16.632Z,1024.25
2019-03-09T06:03:46.714Z,1024.17
2019-03-09T06:07:16.798Z,1023.88
2019-03-09T06:10:46.822Z,1024.17
2019-03-09T06:14:16.982Z,1024.54
2019-03-09T06:17:47.013Z,1024.51
2019-03-09T06:21:16.958Z,1024.46
2019-03-09T06:24:47.060Z,1024.78
2019-03-09T06:28:17.031Z,1025.24
2019-03-09T06:33:16.182Z,1025.27
2019-03-09T06:36:55.487Z,1025.27
2019-03-09T06:40:25.526Z,1025.42
2019-03-09T06:43:55.558Z,1025.8
2019-03-09T06:47:25.620Z,1026.11
2019-03-09T06:50:55.632Z,1026.25
2019-03-09T06:54:25.744Z,1026.81
2019-03-09T06:57:55.836Z,1027.42
2019-03-09T07:01:25.971Z,1027.58
2019-03-09T07:04:56.061Z,1028.58
2019-03-09T07:08:26.175Z,1029.04
2019-03-09T07:11:56.256Z,1029.35
2019-03-09T07:15:28.749Z,1029.15
2019-03-09T07:18:58.730Z,1029.41
2019-03-09T07:22:28.763Z,1029.46
2019-03-09T07:25:58.900Z,1029.72
2019-03-09T07:29:28.810Z,1030.34
2019-03-09T07:32:58.907Z,1031.02
2019-03-09T07:36:28.970Z,1031.72
2019-03-09T07:40:00.032Z,1032.81
2019-03-09T07:43:30.167Z,1033.16
2019-03-09T07:47:00.177Z,1033.6
2019-03-09T07:50:30.323Z,1033.46
2019-03-09T07:54:00.360Z,1033.16
2019-03-09T07:57:30.402Z,1032.84
2019-03-09T08:00:17.626Z,1033.24
2019-03-09T08:03:47.696Z,1034.08
2019-03-09T08:07:17.644Z,1034.01
2019-03-09T08:10:47.651Z,1034.19
2019-03-09T08:14:17.733Z,1035.05
2019-03-09T08:17:47.785Z,1035.28
2019-03-09T08:21:17.887Z,1035.54
2019-03-09T08:24:48.001Z,1036.02
2019-03-09T08:28:17.943Z,1036.66
2019-03-09T08:31:48.024Z,1037.29
2019-03-09T08:35:18.747Z,1038.15
2019-03-09T08:38:48.847Z,1038.14
2019-03-09T08:42:19.932Z,1039.38
2019-03-09T08:45:49.924Z,1039.77
2019-03-09T08:49:19.969Z,1040.83
2019-03-09T08:52:50.214Z,1041.01
2019-03-09T08:56:20.333Z,1041.74
2019-03-09T08:59:50.506Z,1042.2
2019-03-09T09:03:20.594Z,1042.93
2019-03-09T09:06:50.728Z,1043.11
2019-03-09T09:10:20.795Z,1043.32
2019-03-09T09:13:50.880Z,1044.6
2019-03-09T09:17:21.026Z,1043.97
2019-03-09T09:20:51.225Z,1044.17
2019-03-09T09:24:21.228Z,1045.13
2019-03-09T09:27:52.204Z,1044.92
2019-03-09T09:31:22.472Z,1044.66
2019-03-09T09:34:52.574Z,1045.01
2019-03-09T09:38:22.596Z,1046.19
2019-03-09T09:41:52.720Z,1046.83
2019-03-09T09:45:24.491Z,1048.26
2019-03-09T09:48:54.596Z,1048.56
2019-03-09T09:52:24.623Z,1048.03
2019-03-09T09:55:54.820Z,1046.85
2019-03-09T09:59:24.871Z,1046.96
2019-03-09T10:00:18.931Z,1047.16
2019-03-09T10:03:48.969Z,1047.6
2019-03-09T10:07:19.046Z,1048.03
2019-03-09T10:10:49.258Z,1048.75
2019-03-09T10:14:19.331Z,1049.44
2019-03-09T10:17:49.554Z,1051.19
2019-03-09T10:21:19.505Z,1052.08
2019-03-09T10:24:49.627Z,1053.41
2019-03-09T10:28:19.760Z,1056.05
2019-03-09T10:31:49.892Z,1057.94
2019-03-09T10:35:19.974Z,1059.34
2019-03-09T10:38:50.017Z,1061.36
2019-03-09T10:42:20.065Z,1063.36
2019-03-09T10:45:51.122Z,1064.3
2019-03-09T10:49:21.134Z,1066.34
2019-03-09T10:52:51.276Z,1067.6
2019-03-09T10:56:21.379Z,1068.87
2019-03-09T10:59:51.501Z,1070.72
2019-03-09T11:03:21.584Z,1072.12
2019-03-09T11:06:51.717Z,1072.19
2019-03-09T11:10:21.911Z,1072.44
2019-03-09T11:13:52.328Z,1074.05
2019-03-09T11:17:22.424Z,1074.37
2019-03-09T11:20:52.497Z,1076.5
2019-03-09T11:24:22.615Z,1076.5
2019-03-09T11:27:52.851Z,1075.62
2019-03-09T11:31:22.884Z,1075.86
2019-03-09T11:34:53.087Z,1076.92
2019-03-09T11:38:23.119Z,1078.64
2019-03-09T11:41:53.231Z,1076.77
2019-03-09T11:45:23.265Z,1076.68
2019-03-09T11:48:54.357Z,1076.84
2019-03-09T11:52:24.531Z,1074.33
2019-03-09T11:55:54.761Z,1074.27
2019-03-09T11:59:24.855Z,1073.87
2019-03-09T12:00:20.225Z,1074.24
2019-03-09T12:03:50.258Z,1076.49
2019-03-09T12:07:20.300Z,1076.01
2019-03-09T12:10:50.416Z,1074.55
2019-03-09T12:14:20.455Z,1075.89
2019-03-09T12:17:50.920Z,1077.36
2019-03-09T12:21:21.163Z,1078.35
2019-03-09T12:24:52.103Z,1077.24
2019-03-09T12:28:22.185Z,1076.89
2019-03-09T12:31:52.288Z,1077.19
2019-03-09T12:35:22.350Z,1079.18
2019-03-09T12:38:52.523Z,1077.68
2019-03-09T12:42:22.674Z,1077.88
2019-03-09T12:45:52.818Z,1078.54
2019-03-09T12:49:22.990Z,1080.72
2019-03-09T12:52:53.096Z,1079.63
2019-03-09T12:56:23.436Z,1080.14
2019-03-09T12:59:53.468Z,1079.59
2019-03-09T13:03:23.542Z,1076.65
2019-03-09T13:06:53.654Z,1074.99
2019-03-09T13:10:23.915Z,1076.03
2019-03-09T13:13:54.078Z,1078.49
2019-03-09T13:17:24.163Z,1076.96
2019-03-09T13:20:54.223Z,1076.99
2019-03-09T13:24:24.378Z,1075.39
2019-03-09T13:27:54.488Z,1074.52
2019-03-09T13:31:24.621Z,1074.45
2019-03-09T13:34:54.693Z,1074.56
2019-03-09T13:38:24.806Z,1072.72
2019-03-09T13:41:54.934Z,1070.47
2019-03-09T13:45:25.012Z,1072.05
2019-03-09T13:48:55.184Z,1073.11
2019-03-09T13:52:26.257Z,1071.32
2019-03-09T13:55:56.469Z,1072.2
2019-03-09T13:59:27.414Z,1072.48
2019-03-09T14:00:17.202Z,1072.31
2019-03-09T14:03:47.225Z,1069.15
2019-03-09T14:07:17.308Z,1063.51
2019-03-09T14:10:47.440Z,1062.86
2019-03-09T14:14:17.432Z,1065.62
2019-03-09T14:17:47.610Z,1066.6
2019-03-09T14:21:17.767Z,1068.23
2019-03-09T14:24:47.850Z,1068.77
2019-03-09T14:28:17.839Z,1067.16
2019-03-09T14:31:47.987Z,1066.55
2019-03-09T14:35:18.079Z,1066.71
2019-03-09T14:38:48.170Z,1066.25
2019-03-09T14:42:18.135Z,1066.14
2019-03-09T14:45:48.146Z,1066.32
2019-03-09T14:49:18.208Z,1066.87
2019-03-09T14:52:49.250Z,1067.71
2019-03-09T14:56:19.273Z,1068.11
2019-03-09T14:59:51.022Z,1068.19
2019-03-09T15:03:21.188Z,1068.74
2019-03-09T15:06:51.341Z,1065.72
2019-03-09T15:10:21.492Z,1061.67
2019-03-09T15:13:52.515Z,1059.14
2019-03-09T15:17:22.748Z,1058.57
2019-03-09T15:20:52.862Z,1056.56
2019-03-09T15:24:22.853Z,1053.17
2019-03-09T15:27:53.566Z,1052.05
2019-03-09T15:31:23.658Z,1051.76
2019-03-09T15:34:53.722Z,1050.29
2019-03-09T15:38:23.793Z,1048.13
2019-03-09T15:41:53.937Z,1041.7
2019-03-09T15:45:24.067Z,1038.2
2019-03-09T15:48:54.130Z,1038.5
2019-03-09T15:52:24.218Z,1038.79
2019-03-09T15:55:55.985Z,1037.21
2019-03-09T15:59:26.117Z,1036.06
2019-03-09T16:00:17.650Z,1035.64
2019-03-09T16:03:47.780Z,1032.94
2019-03-09T16:07:17.812Z,1032.61
2019-03-09T16:10:47.954Z,1032.44
2019-03-09T16:14:18.074Z,1032.6
2019-03-09T16:17:48.169Z,1032.62
2019-03-09T16:21:18.302Z,1029.48
2019-03-09T16:24:48.484Z,1028.1
2019-03-09T16:28:18.576Z,1026.17
2019-03-09T16:31:48.728Z,1024.66
2019-03-09T16:35:18.833Z,1022.63
2019-03-09T16:38:48.893Z,1020.92
2019-03-09T16:42:18.965Z,1020.29
2019-03-09T16:45:49.117Z,1020.05
2019-03-09T16:49:19.139Z,1019.64
2019-03-09T16:52:49.293Z,1019.95
2019-03-09T16:56:20.424Z,1020.13
2019-03-09T16:59:50.696Z,1020.33
2019-03-09T17:03:20.668Z,1020.77
2019-03-09T17:06:50.697Z,1021.36
2019-03-09T17:10:20.772Z,1022.12
2019-03-09T17:13:50.824Z,1022.55
2019-03-09T17:17:22.856Z,1022.7
2019-03-09T17:20:53.008Z,1022.73
2019-03-09T17:24:23.011Z,1023.52
2019-03-09T17:27:53.225Z,1024.42
2019-03-09T17:31:23.245Z,1024.75
2019-03-09T17:34:53.437Z,1024.77
2019-03-09T17:38:23.519Z,1024.88
2019-03-09T17:41:53.544Z,1025.15
2019-03-09T17:45:23.586Z,1024.27
2019-03-09T17:48:53.726Z,1024.08
2019-03-09T17:52:23.788Z,1023.62
2019-03-09T17:55:53.890Z,1023.26
2019-03-09T17:59:24.926Z,1023.28
2019-03-09T18:00:19.383Z,1023.26
2019-03-09T18:03:49.425Z,1023.31
2019-03-09T18:07:19.487Z,1023.4
2019-03-09T18:10:52.959Z,1023.45
2019-03-09T18:14:23.041Z,1023.71
2019-03-09T18:17:53.223Z,1023.81
2019-03-09T18:21:23.335Z,1023.66
2019-03-09T18:24:53.347Z,1023.61
2019-03-09T18:28:23.399Z,1024.14
2019-03-09T18:31:53.432Z,1025.05
2019-03-09T18:35:23.436Z,1025.92
2019-03-09T18:38:53.546Z,1026.57
2019-03-09T18:42:23.638Z,1026.93
2019-03-09T18:45:53.640Z,1026.73
2019-03-09T18:49:23.668Z,1026.88
2019-03-09T18:52:53.735Z,1026.98
2019-03-09T18:56:23.677Z,1027.03
2019-03-09T18:59:55.512Z,1027
2019-03-09T19:03:25.601Z,1026.75
2019-03-09T19:06:55.664Z,1026.84
2019-03-09T19:10:25.836Z,1027.16
2019-03-09T19:13:55.948Z,1027.58
2019-03-09T19:17:25.848Z,1028
2019-03-09T19:20:56.002Z,1027.95
2019-03-09T19:24:26.019Z,1027.67
2019-03-09T19:27:56.211Z,1027.66
2019-03-09T19:31:26.299Z,1027.32
2019-03-09T19:34:56.411Z,1027.49
2019-03-09T19:38:26.523Z,1027.51
2019-03-09T19:41:56.656Z,1027.4
2019-03-09T19:45:26.684Z,1027.23
2019-03-09T19:48:56.741Z,1026.74
2019-03-09T19:52:26.822Z,1025.86
2019-03-09T19:55:57.074Z,1025.64
2019-03-09T19:59:27.066Z,1025.44
2019-03-09T20:00:18.586Z,1025.34
2019-03-09T20:03:48.709Z,1025.21
2019-03-09T20:07:18.781Z,1024.98
2019-03-09T20:10:48.904Z,1025.2
2019-03-09T20:14:18.995Z,1025.12
2019-03-09T20:17:49.178Z,1025.22
2019-03-09T20:21:19.290Z,1025.12
2019-03-09T20:24:49.390Z,1025.06
2019-03-09T20:28:19.460Z,1025.32
2019-03-09T20:31:49.456Z,1025.47
2019-03-09T20:35:19.530Z,1025.39
2019-03-09T20:38:49.662Z,1025.52
2019-03-09T20:42:19.693Z,1025.56
2019-03-09T20:45:49.825Z,1025.45
2019-03-09T20:49:19.787Z,1025.65
2019-03-09T20:52:50.139Z,1025.69
2019-03-09T20:56:20.233Z,1025.98
2019-03-09T20:59:50.313Z,1026.04
2019-03-09T21:03:22.928Z,1025.92
2019-03-09T21:06:53.208Z,1026.48
2019-03-09T21:10:23.351Z,1026.76
2019-03-09T21:13:53.470Z,1026.95
2019-03-09T21:17:23.508Z,1027.18
2019-03-09T21:20:53.472Z,1027.27
2019-03-09T21:24:23.569Z,1027.32
2019-03-09T21:27:53.746Z,1027.42
2019-03-09T21:31:23.863Z,1027.24
2019-03-09T21:34:53.987Z,1027.2
2019-03-09T21:38:23.970Z,1024.37
2019-03-09T21:41:54.170Z,1022.67
2019-03-09T21:45:24.195Z,1019.83
2019-03-09T21:48:54.344Z,1017.66
2019-03-09T21:52:24.275Z,1016.3
2019-03-09T21:55:54.357Z,1015.39
2019-03-09T21:59:24.331Z,1013.91
2019-03-09T22:00:17.401Z,1013.12
2019-03-09T22:03:47.533Z,1011.34
2019-03-09T22:07:17.505Z,1011.12
2019-03-09T22:10:47.537Z,1012.4
2019-03-09T22:14:17.539Z,1011.8
2019-03-09T22:17:47.692Z,1012.16
2019-03-09T22:21:17.844Z,1012.5
2019-03-09T22:24:47.944Z,1012.63
2019-03-09T22:28:17.977Z,1013.43
2019-03-09T22:31:48.049Z,1014.37
2019-03-09T22:35:18.020Z,1015.17
2019-03-09T22:38:48.123Z,1015.71
2019-03-09T22:42:18.160Z,1015.54
2019-03-09T22:45:48.207Z,1016.23
2019-03-09T22:49:18.329Z,1017.09
2019-03-09T22:52:48.451Z,1017.8
2019-03-09T22:56:18.423Z,1018.23
2019-03-09T22:59:48.555Z,1018.55
2019-03-09T23:03:18.659Z,1018.68
2019-03-09T23:06:49.719Z,1018.84
2019-03-09T23:10:19.801Z,1018.91
2019-03-09T23:13:49.993Z,1018.85
2019-03-09T23:17:20.007Z,1019.23
2019-03-09T23:20:50.071Z,1019.81
2019-03-09T23:24:20.137Z,1020.64
2019-03-09T23:27:50.172Z,1021.23
2019-03-09T23:31:20.254Z,1021.34
2019-03-09T23:34:50.326Z,1021.64
2019-03-09T23:38:20.548Z,1021.96
2019-03-09T23:41:50.610Z,1021.91
2019-03-09T23:45:20.812Z,1021.44
2019-03-09T23:48:51.526Z,1020.18
2019-03-09T23:52:21.566Z,1019.2
2019-03-09T23:55:51.748Z,1018.25
2019-03-09T23:59:21.811Z,1017.47
